createdAt,value
2022-09-16T00:01:51.854Z,12.56
2022-09-16T00:04:18.407Z,12.50
2022-09-16T00:06:44.914Z,12.33
2022-09-16T00:09:11.406Z,12.19
2022-09-16T00:11:37.789Z,12.24
2022-09-16T00:14:04.481Z,12.24
2022-09-16T00:16:31.062Z,12.29
2022-09-16T00:18:59.777Z,12.21
2022-09-16T00:21:27.950Z,12.04
2022-09-16T00:23:55.815Z,11.98
2022-09-16T00:26:23.010Z,12.01
2022-09-16T00:28:50.701Z,12.16
2022-09-16T00:31:17.898Z,12.10
2022-09-16T00:33:44.441Z,11.84
2022-09-16T00:36:16.869Z,11.90
2022-09-16T00:38:44.518Z,11.70
2022-09-16T00:41:20.195Z,11.72
2022-09-16T00:43:52.956Z,11.73
2022-09-16T00:46:26.024Z,11.59
2022-09-16T00:48:52.950Z,11.74
2022-09-16T00:51:21.010Z,11.78
2022-09-16T00:53:56.837Z,11.65
2022-09-16T00:56:27.417Z,11.52
2022-09-16T00:59:18.409Z,11.51
2022-09-16T01:01:46.787Z,11.57
2022-09-16T01:04:35.109Z,11.63
2022-09-16T01:07:01.792Z,11.58
2022-09-16T01:09:30.178Z,11.32
2022-09-16T01:11:56.856Z,11.46
2022-09-16T01:14:44.782Z,11.49
2022-09-16T01:17:26.088Z,11.37
2022-09-16T01:20:26.685Z,11.16
2022-09-16T01:23:12.419Z,11.21
2022-09-16T01:26:06.802Z,11.14
2022-09-16T01:29:08.039Z,11.20
2022-09-16T01:32:09.139Z,11.32
2022-09-16T01:34:45.606Z,11.26
2022-09-16T01:37:33.942Z,11.50
2022-09-16T01:40:14.397Z,11.47
2022-09-16T01:43:11.546Z,11.51
2022-09-16T01:45:45.080Z,11.16
2022-09-16T01:48:17.389Z,11.69
2022-09-16T01:51:06.513Z,11.68
2022-09-16T01:53:54.253Z,11.66
2022-09-16T01:56:29.094Z,11.71
2022-09-16T02:03:15.695Z,11.57
2022-09-16T02:09:33.285Z,11.51
2022-09-16T02:12:05.590Z,11.44
2022-09-16T02:14:35.889Z,11.33
2022-09-16T02:17:07.363Z,11.31
2022-09-16T02:19:41.671Z,11.38
2022-09-16T02:22:20.999Z,11.31
2022-09-16T02:24:48.129Z,11.28
2022-09-16T02:27:18.258Z,11.46
2022-09-16T02:29:50.371Z,11.36
2022-09-16T02:32:20.212Z,11.50
2022-09-16T02:34:51.296Z,11.51
2022-09-16T02:37:29.529Z,11.30
2022-09-16T02:40:02.187Z,11.50
2022-09-16T02:42:29.878Z,11.37
2022-09-16T02:44:57.890Z,11.39
2022-09-16T02:47:58.558Z,11.40
2022-09-16T02:50:34.091Z,11.53
2022-09-16T02:53:05.065Z,11.52
2022-09-16T02:55:31.392Z,11.54
2022-09-16T02:57:57.976Z,11.58
2022-09-16T03:00:25.731Z,11.61
2022-09-16T03:02:54.563Z,11.48
2022-09-16T03:05:26.697Z,11.51
2022-09-16T03:07:53.109Z,11.57
2022-09-16T03:10:22.299Z,11.60
2022-09-16T03:13:16.830Z,11.57
2022-09-16T03:15:46.824Z,11.58
2022-09-16T03:18:27.972Z,11.61
2022-09-16T03:21:16.567Z,11.45
2022-09-16T03:24:00.985Z,11.55
2022-09-16T03:26:55.051Z,11.63
2022-09-16T03:29:36.495Z,11.65
2022-09-16T03:32:23.784Z,11.68
2022-09-16T03:34:59.824Z,11.66
2022-09-16T03:37:28.986Z,11.61
2022-09-16T03:40:00.152Z,11.58
2022-09-16T03:42:26.681Z,11.58
2022-09-16T03:44:53.492Z,11.53
2022-09-16T03:47:19.938Z,11.62
2022-09-16T03:49:46.300Z,11.55
2022-09-16T03:52:12.721Z,11.55
2022-09-16T03:54:39.240Z,11.51
2022-09-16T03:57:06.370Z,11.49
2022-09-16T03:59:33.918Z,11.49
2022-09-16T04:02:00.995Z,11.51
2022-09-16T04:04:27.653Z,11.52
2022-09-16T04:06:54.104Z,11.44
2022-09-16T04:09:20.700Z,11.40
2022-09-16T04:11:47.173Z,11.34
2022-09-16T04:14:13.565Z,11.32
2022-09-16T04:16:44.821Z,11.24
2022-09-16T04:19:13.432Z,11.12
2022-09-16T04:21:40.489Z,11.09
2022-09-16T04:24:12.978Z,10.89
2022-09-16T04:26:40.788Z,10.96
2022-09-16T04:29:07.330Z,10.52
2022-09-16T04:31:33.954Z,11.19
2022-09-16T04:34:04.850Z,11.26
2022-09-16T04:36:32.765Z,11.22
2022-09-16T04:38:59.232Z,11.18
2022-09-16T04:41:26.918Z,11.31
2022-09-16T04:43:56.398Z,11.41
2022-09-16T04:46:27.136Z,11.45
2022-09-16T04:48:54.821Z,11.50
2022-09-16T04:51:22.529Z,11.49
2022-09-16T04:53:49.609Z,11.52
2022-09-16T04:56:19.551Z,11.59
2022-09-16T04:58:54.036Z,11.54
2022-09-16T05:01:23.549Z,11.45
2022-09-16T05:03:53.761Z,11.43
2022-09-16T05:06:27.428Z,11.47
2022-09-16T05:08:55.562Z,11.44
2022-09-16T05:11:27.599Z,11.38
2022-09-16T05:13:54.986Z,11.33
2022-09-16T05:16:23.254Z,11.35
2022-09-16T05:18:53.515Z,11.37
2022-09-16T05:21:21.950Z,11.37
2022-09-16T05:23:48.789Z,11.46
2022-09-16T05:26:26.572Z,11.42
2022-09-16T05:28:53.710Z,11.45
2022-09-16T05:31:26.546Z,11.40
2022-09-16T05:34:01.070Z,11.39
2022-09-16T05:36:30.080Z,11.42
2022-09-16T05:39:20.910Z,11.48
2022-09-16T05:41:43.254Z,11.47
2022-09-16T05:44:09.856Z,11.47
2022-09-16T05:46:37.096Z,11.53
2022-09-16T05:49:04.301Z,11.51
2022-09-16T05:51:31.213Z,11.35
2022-09-16T05:53:59.218Z,11.04
2022-09-16T05:56:29.054Z,11.55
2022-09-16T05:58:57.975Z,11.58
2022-09-16T06:01:27.169Z,11.60
2022-09-16T06:03:57.380Z,11.54
2022-09-16T06:06:26.559Z,11.56
2022-09-16T06:08:56.510Z,11.60
2022-09-16T06:11:24.309Z,11.66
2022-09-16T06:13:55.896Z,11.74
2022-09-16T06:16:25.672Z,11.65
2022-09-16T06:18:53.270Z,11.75
2022-09-16T06:21:20.154Z,11.88
2022-09-16T06:23:46.643Z,11.87
2022-09-16T06:26:15.735Z,11.94
2022-09-16T06:28:43.040Z,11.97
2022-09-16T06:31:19.838Z,12.06
2022-09-16T06:33:46.852Z,12.14
2022-09-16T06:36:16.315Z,12.31
2022-09-16T06:38:43.650Z,12.40
2022-09-16T06:41:12.078Z,12.47
2022-09-16T06:43:39.201Z,12.60
2022-09-16T06:46:11.144Z,12.74
2022-09-16T06:48:37.669Z,12.80
2022-09-16T06:51:07.010Z,12.83
2022-09-16T07:26:48.250Z,12.74
2022-09-16T07:29:18.721Z,12.77
2022-09-16T07:31:45.166Z,12.81
2022-09-16T07:34:13.623Z,12.79
2022-09-16T07:36:46.059Z,12.91
2022-09-16T07:43:19.705Z,13.16
2022-09-16T07:45:46.696Z,13.30
2022-09-16T07:48:38.794Z,13.30
2022-09-16T07:51:10.656Z,13.29
2022-09-16T07:53:37.512Z,13.29
2022-09-16T07:56:05.739Z,13.20
2022-09-16T07:58:32.516Z,13.19
2022-09-16T08:01:03.941Z,13.11
2022-09-16T08:03:32.303Z,13.19
2022-09-16T08:06:10.893Z,13.20
2022-09-16T08:33:54.285Z,13.44
2022-09-16T08:40:45.451Z,13.44
2022-09-16T09:19:40.169Z,14.96
2022-09-16T09:26:52.455Z,15.48
2022-09-16T09:30:08.932Z,15.65
2022-09-16T09:37:04.732Z,15.91
2022-09-16T09:39:44.887Z,16.18
2022-09-16T09:42:26.676Z,16.23
2022-09-16T09:45:19.233Z,16.35
2022-09-16T09:47:51.032Z,16.47
2022-09-16T09:50:30.963Z,16.45
2022-09-16T09:53:06.819Z,16.73
2022-09-16T09:55:35.537Z,16.83
2022-09-16T09:58:10.954Z,16.15
2022-09-16T10:00:37.482Z,16.07
2022-09-16T10:03:13.188Z,16.44
2022-09-16T10:05:41.075Z,16.89
2022-09-16T10:08:43.753Z,17.28
2022-09-16T10:11:22.559Z,17.28
2022-09-16T10:13:54.577Z,17.26
2022-09-16T10:16:26.937Z,17.12
2022-09-16T10:19:17.002Z,16.93
2022-09-16T10:21:53.317Z,16.97
2022-09-16T10:24:30.282Z,16.95
2022-09-16T10:26:58.255Z,17.03
2022-09-16T10:29:24.732Z,17.02
2022-09-16T10:31:51.744Z,16.67
2022-09-16T10:34:34.614Z,16.67
2022-09-16T10:37:14.587Z,16.70
2022-09-16T10:39:46.109Z,16.59
2022-09-16T10:42:21.720Z,16.55
2022-09-16T10:49:09.211Z,16.71
2022-09-16T10:51:35.764Z,16.86
2022-09-16T10:54:05.967Z,17.13
2022-09-16T10:56:34.809Z,17.30
2022-09-16T10:59:09.343Z,17.40
2022-09-16T11:01:46.685Z,17.63
2022-09-16T11:04:31.631Z,17.75
2022-09-16T11:07:16.366Z,18.10
2022-09-16T11:09:51.352Z,18.02
2022-09-16T11:12:45.518Z,17.80
2022-09-16T11:15:11.825Z,17.74
2022-09-16T11:17:56.560Z,17.45
2022-09-16T11:20:41.869Z,17.25
2022-09-16T11:23:17.102Z,17.08
2022-09-16T11:26:20.783Z,16.70
2022-09-16T11:28:53.321Z,16.60
2022-09-16T11:31:35.988Z,16.56
2022-09-16T11:34:08.272Z,16.41
2022-09-16T11:36:40.193Z,16.34
2022-09-16T11:39:21.812Z,16.40
2022-09-16T11:42:10.196Z,16.41
2022-09-16T11:44:46.834Z,16.26
2022-09-16T11:47:28.520Z,16.18
2022-09-16T11:50:18.253Z,16.17
2022-09-16T11:53:05.410Z,16.23
2022-09-16T11:56:01.407Z,16.15
2022-09-16T11:58:37.962Z,16.17
2022-09-16T12:01:19.443Z,16.24
2022-09-16T12:03:55.589Z,16.29
2022-09-16T12:06:24.858Z,16.41
2022-09-16T12:09:03.115Z,16.45
2022-09-16T12:11:37.185Z,16.48
2022-09-16T12:14:15.077Z,16.52
2022-09-16T12:17:00.046Z,16.59
2022-09-16T12:19:35.065Z,16.53
2022-09-16T12:22:08.058Z,16.49
2022-09-16T12:24:44.740Z,16.47
2022-09-16T12:27:19.442Z,16.50
2022-09-16T12:30:18.393Z,16.73
2022-09-16T12:32:44.870Z,16.83
2022-09-16T12:35:16.281Z,16.68
2022-09-16T12:37:50.794Z,16.75
2022-09-16T12:41:00.453Z,16.84
2022-09-16T12:44:02.265Z,16.96
2022-09-16T12:46:53.038Z,17.05
2022-09-16T12:49:40.797Z,16.84
2022-09-16T12:52:49.030Z,16.50
2022-09-16T12:55:29.933Z,16.16
2022-09-16T12:58:34.602Z,16.24
2022-09-16T13:01:24.808Z,16.36
2022-09-16T13:04:03.028Z,16.73
2022-09-16T13:06:36.258Z,16.91
2022-09-16T13:09:22.317Z,17.05
2022-09-16T13:12:35.319Z,17.19
2022-09-16T13:14:50.789Z,17.15
2022-09-16T13:17:28.249Z,17.26
2022-09-16T13:20:00.849Z,17.35
2022-09-16T13:22:38.020Z,17.28
2022-09-16T13:25:25.000Z,17.02
2022-09-16T13:28:04.720Z,17.03
2022-09-16T13:30:37.947Z,16.86
2022-09-16T13:33:13.550Z,16.83
2022-09-16T13:35:42.482Z,16.80
2022-09-16T13:38:23.613Z,16.84
2022-09-16T13:41:01.423Z,16.77
2022-09-16T13:43:35.086Z,16.76
2022-09-16T13:46:07.044Z,16.67
2022-09-16T13:49:02.562Z,16.61
2022-09-16T13:51:33.990Z,16.40
2022-09-16T13:54:04.317Z,16.25
2022-09-16T13:56:48.424Z,16.04
2022-09-16T13:59:37.727Z,15.83
2022-09-16T14:02:21.529Z,15.15
2022-09-16T14:05:05.947Z,15.08
2022-09-16T14:07:43.920Z,14.70
2022-09-16T14:10:23.417Z,14.38
2022-09-16T14:13:10.909Z,14.25
2022-09-16T14:15:42.233Z,14.12
2022-09-16T14:18:15.100Z,14.27
2022-09-16T14:21:00.722Z,14.45
2022-09-16T14:23:28.619Z,14.23
2022-09-16T14:25:55.708Z,14.51
2022-09-16T14:28:23.348Z,14.26
2022-09-16T14:30:58.345Z,14.33
2022-09-16T14:33:32.799Z,14.17
2022-09-16T14:36:01.068Z,14.04
2022-09-16T14:38:45.628Z,13.92
2022-09-16T14:41:19.543Z,13.78
2022-09-16T14:43:46.262Z,13.80
2022-09-16T14:46:12.766Z,13.64
2022-09-16T14:48:42.046Z,13.15
2022-09-16T14:51:21.158Z,13.68
2022-09-16T14:54:11.846Z,13.71
2022-09-16T14:56:38.980Z,13.65
2022-09-16T14:59:06.149Z,13.68
2022-09-16T15:01:32.516Z,13.70
2022-09-16T15:03:58.919Z,13.69
2022-09-16T15:06:34.628Z,13.82
2022-09-16T15:09:07.658Z,13.83
2022-09-16T15:11:48.232Z,13.84
2022-09-16T15:14:16.895Z,13.91
2022-09-16T15:16:54.541Z,13.87
2022-09-16T15:19:25.447Z,13.75
2022-09-16T15:21:52.617Z,13.75
2022-09-16T15:24:28.963Z,13.90
2022-09-16T15:26:57.222Z,13.96
2022-09-16T15:29:23.553Z,13.98
2022-09-16T15:31:50.919Z,14.00
2022-09-16T15:34:18.588Z,13.97
2022-09-16T15:36:50.054Z,14.07
2022-09-16T15:39:29.601Z,14.14
2022-09-16T15:42:16.577Z,14.04
2022-09-16T15:44:48.035Z,14.12
2022-09-16T15:47:24.502Z,14.18
2022-09-16T15:49:55.565Z,14.15
2022-09-16T15:52:22.193Z,14.13
2022-09-16T15:54:52.628Z,14.12
2022-09-16T15:57:33.729Z,13.82
2022-09-16T16:00:13.223Z,13.23
2022-09-16T16:02:54.290Z,12.31
2022-09-16T16:05:28.131Z,11.97
2022-09-16T16:07:59.981Z,12.09
2022-09-16T16:10:36.114Z,12.39
2022-09-16T16:13:04.591Z,11.47
2022-09-16T16:15:35.446Z,12.20
2022-09-16T16:18:05.794Z,12.27
2022-09-16T16:20:34.542Z,12.30
2022-09-16T16:23:02.214Z,12.39
2022-09-16T16:25:29.477Z,12.51
2022-09-16T16:27:55.873Z,12.53
2022-09-16T16:30:22.344Z,12.59
2022-09-16T16:32:48.969Z,12.62
2022-09-16T16:35:15.399Z,12.59
2022-09-16T16:37:46.364Z,12.56
2022-09-16T16:40:14.056Z,12.63
2022-09-16T16:42:42.965Z,12.58
2022-09-16T16:45:11.011Z,12.52
2022-09-16T16:47:37.389Z,12.63
2022-09-16T16:50:04.148Z,12.56
2022-09-16T16:52:30.580Z,12.61
2022-09-16T16:54:57.200Z,12.56
2022-09-16T16:57:24.263Z,12.55
2022-09-16T16:59:51.854Z,12.49
2022-09-16T17:02:18.348Z,12.46
2022-09-16T17:04:44.711Z,12.43
2022-09-16T17:07:27.947Z,12.46
2022-09-16T17:09:57.171Z,12.39
2022-09-16T17:12:23.602Z,12.35
2022-09-16T17:14:50.020Z,12.27
2022-09-16T17:17:17.524Z,12.30
2022-09-16T17:19:43.933Z,12.30
2022-09-16T17:22:10.896Z,12.17
2022-09-16T17:24:37.269Z,12.17
2022-09-16T17:27:04.365Z,12.02
2022-09-16T17:29:30.793Z,12.01
2022-09-16T17:31:57.410Z,11.92
2022-09-16T17:34:26.124Z,11.80
2022-09-16T17:36:52.609Z,11.61
2022-09-16T17:39:21.329Z,11.57
2022-09-16T17:41:49.409Z,11.56
2022-09-16T17:44:17.379Z,11.39
2022-09-16T17:46:45.071Z,11.41
2022-09-16T17:49:37.544Z,11.28
2022-09-16T17:52:03.957Z,11.34
2022-09-16T17:54:30.384Z,11.30
2022-09-16T17:56:56.760Z,11.20
2022-09-16T17:59:25.116Z,11.21
2022-09-16T18:01:51.523Z,11.14
2022-09-16T18:04:17.995Z,11.05
2022-09-16T18:06:46.065Z,11.00
2022-09-16T18:09:13.612Z,11.06
2022-09-16T18:11:40.348Z,11.01
2022-09-16T18:14:10.021Z,10.84
2022-09-16T18:16:36.426Z,10.93
2022-09-16T18:19:04.369Z,10.84
2022-09-16T18:21:31.700Z,10.81
2022-09-16T18:24:02.018Z,10.92
2022-09-16T18:26:28.961Z,10.91
2022-09-16T18:29:12.656Z,10.88
2022-09-16T18:31:44.900Z,10.84
2022-09-16T18:34:12.781Z,10.82
2022-09-16T18:36:39.596Z,10.68
2022-09-16T18:39:08.190Z,10.65
2022-09-16T18:41:37.053Z,10.64
2022-09-16T18:44:07.367Z,10.60
2022-09-16T18:46:35.951Z,10.49
2022-09-16T18:49:02.824Z,10.54
2022-09-16T18:51:32.883Z,10.49
2022-09-16T18:54:02.320Z,10.54
2022-09-16T18:56:32.309Z,10.49
2022-09-16T18:59:22.646Z,10.45
2022-09-16T19:01:55.540Z,10.48
2022-09-16T19:04:25.120Z,10.41
2022-09-16T19:06:53.621Z,10.34
2022-09-16T19:09:22.556Z,10.44
2022-09-16T19:11:50.426Z,10.35
2022-09-16T19:14:20.905Z,10.37
2022-09-16T19:16:47.366Z,10.42
2022-09-16T19:19:14.957Z,10.34
2022-09-16T19:21:42.501Z,10.35
2022-09-16T19:24:14.942Z,10.33
2022-09-16T19:26:42.788Z,10.27
2022-09-16T19:29:10.413Z,10.22
2022-09-16T19:31:39.689Z,10.09
2022-09-16T19:34:06.976Z,10.05
2022-09-16T19:36:34.690Z,10.11
2022-09-16T19:39:02.478Z,10.18
2022-09-16T19:41:32.124Z,10.19
2022-09-16T19:44:01.999Z,10.12
2022-09-16T19:46:31.806Z,10.12
2022-09-16T19:48:58.783Z,10.00
2022-09-16T19:51:25.994Z,10.05
2022-09-16T19:53:53.363Z,9.88
2022-09-16T19:56:26.046Z,9.95
2022-09-16T19:58:53.576Z,9.81
2022-09-16T20:01:23.086Z,9.69
2022-09-16T20:03:49.681Z,9.51
2022-09-16T20:06:32.973Z,9.55
2022-09-16T20:09:01.174Z,9.45
2022-09-16T20:11:31.502Z,9.54
2022-09-16T20:14:05.269Z,9.45
2022-09-16T20:16:37.613Z,9.39
2022-09-16T20:19:05.877Z,9.33
2022-09-16T20:21:35.587Z,9.30
2022-09-16T20:24:05.655Z,9.27
2022-09-16T20:26:32.571Z,9.30
2022-09-16T20:28:59.812Z,9.14
2022-09-16T20:31:29.340Z,9.12
2022-09-16T20:33:55.910Z,9.07
2022-09-16T20:36:24.130Z,8.96
2022-09-16T20:38:51.355Z,8.93
2022-09-16T20:41:23.386Z,8.99
2022-09-16T20:43:50.953Z,8.94
2022-09-16T20:46:20.135Z,8.94
2022-09-16T20:48:47.498Z,8.90
2022-09-16T20:51:16.857Z,8.92
2022-09-16T20:53:44.998Z,8.67
2022-09-16T20:56:15.667Z,8.49
2022-09-16T20:58:44.364Z,8.35
2022-09-16T21:01:20.498Z,8.52
2022-09-16T21:04:00.820Z,8.62
2022-09-16T21:06:29.089Z,8.67
2022-09-16T21:08:59.522Z,8.85
2022-09-16T21:11:28.103Z,8.77
2022-09-16T21:14:03.010Z,8.86
2022-09-16T21:16:31.802Z,8.81
2022-09-16T21:19:00.687Z,8.82
2022-09-16T21:21:28.549Z,8.43
2022-09-16T21:23:57.829Z,8.46
2022-09-16T21:26:30.900Z,8.51
2022-09-16T21:28:59.806Z,8.43
2022-09-16T21:31:28.587Z,8.04
2022-09-16T21:33:56.635Z,8.44
2022-09-16T21:36:25.058Z,8.46
2022-09-16T21:38:51.934Z,8.42
2022-09-16T21:41:21.236Z,8.48
2022-09-16T21:43:51.212Z,8.34
2022-09-16T21:46:26.857Z,8.25
2022-09-16T21:48:58.123Z,8.25
2022-09-16T21:51:24.661Z,8.10
2022-09-16T21:53:51.054Z,8.07
2022-09-16T21:56:23.089Z,8.11
2022-09-16T21:58:53.154Z,8.02
2022-09-16T22:01:22.812Z,7.98
2022-09-16T22:04:10.437Z,7.99
2022-09-16T22:06:36.845Z,7.86
2022-09-16T22:09:07.679Z,7.73
2022-09-16T22:11:36.988Z,7.65
2022-09-16T22:14:04.409Z,7.60
2022-09-16T22:16:34.214Z,7.54
2022-09-16T22:19:04.177Z,7.51
2022-09-16T22:21:32.837Z,7.58
2022-09-16T22:24:00.766Z,7.63
2022-09-16T22:26:28.442Z,7.44
2022-09-16T22:28:55.211Z,7.62
2022-09-16T22:31:24.608Z,7.62
2022-09-16T22:33:53.195Z,7.65
2022-09-16T22:36:23.161Z,7.70
2022-09-16T22:38:52.173Z,7.56
2022-09-16T22:41:19.454Z,7.04
2022-09-16T22:43:48.170Z,7.45
2022-09-16T22:46:20.523Z,7.55
2022-09-16T22:48:47.659Z,7.44
2022-09-16T22:51:16.481Z,7.37
2022-09-16T22:53:43.851Z,7.24
2022-09-16T22:56:13.686Z,7.26
2022-09-16T22:58:41.695Z,7.36
2022-09-16T23:01:12.413Z,7.37
2022-09-16T23:03:40.227Z,7.44
2022-09-16T23:06:09.976Z,7.43
2022-09-16T23:08:38.189Z,7.43
2022-09-16T23:11:07.177Z,7.37
2022-09-16T23:13:35.050Z,7.40
2022-09-16T23:16:03.857Z,7.21
2022-09-16T23:18:31.461Z,7.19
2022-09-16T23:21:04.008Z,6.98
2022-09-16T23:23:32.345Z,6.78
2022-09-16T23:26:05.895Z,6.72
2022-09-16T23:28:33.232Z,6.45
2022-09-16T23:31:11.382Z,6.50
2022-09-16T23:33:39.296Z,6.08
2022-09-16T23:36:07.225Z,6.28
2022-09-16T23:38:35.770Z,6.23
2022-09-16T23:41:13.253Z,6.24
2022-09-16T23:43:41.516Z,6.40
2022-09-16T23:46:09.482Z,6.45
2022-09-16T23:48:36.257Z,6.76
2022-09-16T23:51:03.556Z,6.79
2022-09-16T23:53:29.897Z,6.85
2022-09-16T23:55:56.357Z,6.86
2022-09-16T23:58:23.295Z,6.84
